Terminal Aerodrome Forecast
Issued by NWS Shreveport, LA

Home | Current Version | Previous Version | Text Only | Print | Product List | Glossary On
Versions: 1 2 3 4 5 6 7 8 9 10 11 12 13 14 15 16 17 18 19 20 21 22 23
000
FTUS44 KSHV 231300 AAB
TAFSHV
TAF AMD
KSHV 231333Z 2314/2412 16007KT P6SM BKN070 OVC110
      TEMPO 2314/2315 6SM -RA BR SCT015 OVC070
     FM231600 21012KT P6SM BKN015 OVC070
     FM231800 22015G25KT P6SM SCT035
     FM240200 26018G28KT P6SM FEW250
     FM240700 28012KT P6SM SKC=

USA.gov is the U.S. government's official web portal to all federal, state and local government web resources and services.